createdAt,value
2022-11-11T00:00:07.765Z,100070.14
2022-11-11T00:02:57.921Z,100069.45
2022-11-11T00:05:46.555Z,100075.45
2022-11-11T00:08:35.627Z,100079.88
2022-11-11T00:11:24.476Z,100070.45
2022-11-11T00:14:12.949Z,100069.45
2022-11-11T00:17:19.490Z,100066.12
2022-11-11T00:20:27.900Z,100062.51
2022-11-11T00:23:35.818Z,100058.88
2022-11-11T00:26:39.171Z,100055.70
2022-11-11T00:29:16.253Z,100060.78
2022-11-11T00:32:23.897Z,100052.15
2022-11-11T00:35:30.766Z,100049.80
2022-11-11T00:38:24.879Z,100053.22
2022-11-11T00:41:15.197Z,100057.59
2022-11-11T00:44:04.272Z,100056.70
2022-11-11T00:47:10.844Z,100060.42
2022-11-11T00:50:17.370Z,100053.63
2022-11-11T00:53:07.428Z,100049.44
2022-11-11T00:55:56.593Z,100045.25
2022-11-11T00:58:45.253Z,100048.64
2022-11-11T01:01:37.703Z,100046.25
2022-11-11T01:04:26.744Z,100043.83
2022-11-11T01:07:15.065Z,100036.95
2022-11-11T01:10:04.733Z,100043.13
2022-11-11T01:12:57.946Z,100045.59
2022-11-11T01:15:47.952Z,100044.13
2022-11-11T01:18:36.780Z,100047.52
2022-11-11T01:21:26.106Z,100045.82
2022-11-11T01:24:15.297Z,100051.06
2022-11-11T01:27:04.129Z,100052.12
2022-11-11T01:29:53.491Z,100053.75
2022-11-11T01:32:43.254Z,100045.69
2022-11-11T01:35:32.179Z,100036.20
2022-11-11T01:38:21.311Z,100039.58
2022-11-11T01:41:29.477Z,100043.13
2022-11-11T01:44:22.281Z,100054.45
2022-11-11T01:47:11.502Z,100043.13
2022-11-11T01:50:01.637Z,100050.00
2022-11-11T01:52:50.244Z,100051.27
2022-11-11T01:55:38.836Z,100050.64
2022-11-11T01:58:27.580Z,100051.33
2022-11-11T02:01:17.712Z,100050.20
2022-11-11T02:04:25.275Z,100052.83
2022-11-11T02:07:14.817Z,100046.04
2022-11-11T02:10:05.102Z,100038.02
2022-11-11T02:13:11.696Z,100044.19
2022-11-11T02:16:01.432Z,100049.70
2022-11-11T02:18:50.375Z,100051.43
2022-11-11T02:21:40.870Z,100053.95
2022-11-11T02:24:31.430Z,100041.00
2022-11-11T02:27:20.707Z,100045.75
2022-11-11T02:30:11.859Z,100052.69
2022-11-11T02:33:00.219Z,100042.14
2022-11-11T02:35:59.258Z,100036.89
2022-11-11T02:38:48.100Z,100035.20
2022-11-11T02:41:54.623Z,100029.95
2022-11-11T02:44:43.408Z,100035.09
2022-11-11T02:47:32.842Z,100035.27
2022-11-11T02:50:21.926Z,100030.02
2022-11-11T02:53:10.893Z,100043.96
2022-11-11T02:55:59.413Z,100043.96
2022-11-11T02:58:48.122Z,100049.20
2022-11-11T03:01:36.713Z,100042.97
2022-11-11T03:04:25.756Z,100042.97
2022-11-11T03:07:14.842Z,100038.58
2022-11-11T03:10:03.520Z,100034.41
2022-11-11T03:12:52.357Z,100038.81
2022-11-11T03:15:40.864Z,100040.34
2022-11-11T03:18:29.763Z,100038.72
2022-11-11T03:22:32.058Z,100035.83
2022-11-11T03:24:09.880Z,100038.58
2022-11-11T03:26:58.693Z,100036.09
2022-11-11T03:29:47.429Z,100049.38
2022-11-11T03:32:35.705Z,100046.88
2022-11-11T03:35:24.686Z,100040.45
2022-11-11T03:38:18.720Z,100045.19
2022-11-11T03:41:02.565Z,100050.37
2022-11-11T03:43:51.461Z,100051.00
2022-11-11T03:46:40.673Z,100060.56
2022-11-11T03:49:29.300Z,100059.70
2022-11-11T03:52:18.157Z,100056.18
2022-11-11T03:55:07.337Z,100047.38
2022-11-11T03:57:56.354Z,100056.08
2022-11-11T04:00:45.342Z,100054.32
2022-11-11T04:03:51.928Z,100051.33
2022-11-11T04:06:58.661Z,100053.06
2022-11-11T04:10:05.014Z,100051.33
2022-11-11T04:13:12.435Z,100064.55
2022-11-11T04:16:06.877Z,100064.37
2022-11-11T04:19:13.533Z,100064.37
2022-11-11T04:22:03.124Z,100064.31
2022-11-11T04:25:09.665Z,100058.07
2022-11-11T04:28:16.633Z,100067.50
2022-11-11T04:31:05.577Z,100071.98
2022-11-11T04:33:54.451Z,100070.05
2022-11-11T04:36:43.421Z,100074.83
2022-11-11T04:39:50.230Z,100072.94
2022-11-11T04:42:42.222Z,100079.64
2022-11-11T04:45:35.557Z,100085.13
2022-11-11T04:48:24.535Z,100094.55
2022-11-11T04:51:13.218Z,100090.38
2022-11-11T04:54:01.829Z,100094.89
2022-11-11T04:56:51.050Z,100094.20
2022-11-11T04:59:40.322Z,100104.56
2022-11-11T05:02:46.877Z,100097.45
2022-11-11T05:05:36.923Z,100082.84
2022-11-11T05:08:43.100Z,100096.89
2022-11-11T05:11:37.727Z,100085.63
2022-11-11T05:14:44.161Z,100095.27
2022-11-11T05:17:50.857Z,100097.89
2022-11-11T05:20:57.774Z,100089.64
2022-11-11T05:24:04.179Z,100097.52
2022-11-11T05:26:52.625Z,100096.69
2022-11-11T05:29:41.364Z,100108.81
2022-11-11T05:32:32.206Z,100112.20
2022-11-11T05:35:21.301Z,100110.80
2022-11-11T05:38:22.129Z,100114.42
2022-11-11T05:41:11.049Z,100103.70
2022-11-11T05:44:00.053Z,100107.25
2022-11-11T05:46:48.944Z,100104.26
2022-11-11T05:49:37.550Z,100109.51
2022-11-11T05:52:26.051Z,100111.13
2022-11-11T05:55:14.741Z,100103.92
2022-11-11T05:58:03.759Z,100115.18
2022-11-11T06:00:53.063Z,100114.91
2022-11-11T06:03:41.737Z,100116.47
2022-11-11T06:06:32.247Z,100117.30
2022-11-11T06:09:21.727Z,100125.90
2022-11-11T06:12:10.679Z,100121.90
2022-11-11T06:14:59.648Z,100119.28
2022-11-11T06:17:48.262Z,100127.02
2022-11-11T06:20:37.215Z,100134.72
2022-11-11T06:23:26.816Z,100136.06
2022-11-11T06:26:16.932Z,100143.09
2022-11-11T06:29:06.090Z,100140.39
2022-11-11T06:31:55.526Z,100144.05
2022-11-11T06:34:44.205Z,100142.67
2022-11-11T06:37:32.927Z,100143.95
2022-11-11T06:40:22.088Z,100145.58
2022-11-11T06:43:11.708Z,100143.09
2022-11-11T06:46:00.577Z,100142.33
2022-11-11T06:48:50.031Z,100140.77
2022-11-11T06:51:38.917Z,100151.83
2022-11-11T06:54:28.319Z,100148.06
2022-11-11T06:57:17.866Z,100140.80
2022-11-11T07:00:09.302Z,100142.28
2022-11-11T07:02:58.092Z,100153.27
2022-11-11T07:05:47.845Z,100153.03
2022-11-11T07:08:36.648Z,100150.12
2022-11-11T07:11:25.629Z,100158.61
2022-11-11T07:14:15.251Z,100161.10
2022-11-11T07:17:06.387Z,100164.88
2022-11-11T07:19:54.564Z,100156.45
2022-11-11T07:22:43.462Z,100161.22
2022-11-11T07:25:32.443Z,100151.79
2022-11-11T07:28:21.874Z,100158.25
2022-11-11T07:31:10.454Z,100164.72
2022-11-11T07:33:59.256Z,100160.53
2022-11-11T07:36:48.425Z,100166.00
2022-11-11T07:39:37.546Z,100170.17
2022-11-11T07:42:31.294Z,100180.03
2022-11-11T07:45:17.048Z,100170.34
2022-11-11T07:48:05.895Z,100182.65
2022-11-11T07:50:58.006Z,100183.48
2022-11-11T07:53:47.153Z,100180.30
2022-11-11T07:56:36.163Z,100183.31
2022-11-11T07:59:25.375Z,100188.91
2022-11-11T08:02:15.082Z,100189.67
2022-11-11T08:05:03.917Z,100197.07
2022-11-11T08:07:52.739Z,100200.42
2022-11-11T08:10:41.575Z,100192.89
2022-11-11T08:13:42.393Z,100188.50
2022-11-11T08:16:31.044Z,100192.95
2022-11-11T08:19:19.894Z,100190.47
2022-11-11T08:22:08.482Z,100169.66
2022-11-11T08:25:03.608Z,100172.83
2022-11-11T08:27:48.037Z,100172.97
2022-11-11T08:30:36.875Z,100176.08
2022-11-11T08:33:34.630Z,100165.02
2022-11-11T08:36:20.497Z,100166.95
2022-11-11T08:39:06.807Z,100160.62
2022-11-11T08:41:56.084Z,100167.64
2022-11-11T08:44:45.203Z,100170.39
2022-11-11T08:47:33.994Z,100165.28
2022-11-11T08:50:22.612Z,100159.88
2022-11-11T08:53:11.790Z,100157.00
2022-11-11T08:56:03.050Z,100157.61
2022-11-11T08:58:52.014Z,100171.63
2022-11-11T09:01:40.901Z,100173.31
2022-11-11T09:04:44.101Z,100168.77
2022-11-11T09:07:20.569Z,100157.94
2022-11-11T09:10:09.914Z,100164.06
2022-11-11T09:12:59.501Z,100162.44
2022-11-11T09:15:47.920Z,100160.96
2022-11-11T09:18:38.045Z,100169.31
2022-11-11T09:21:26.843Z,100170.61
2022-11-11T09:24:15.845Z,100169.24
2022-11-11T09:27:04.554Z,100172.63
2022-11-11T09:29:53.246Z,100177.81
2022-11-11T09:32:41.947Z,100195.06
2022-11-11T09:35:30.678Z,100177.59
2022-11-11T09:38:19.461Z,100178.42
2022-11-11T09:41:15.939Z,100179.29
2022-11-11T09:44:05.106Z,100183.14
2022-11-11T09:46:58.053Z,100180.50
2022-11-11T09:49:47.850Z,100184.64
2022-11-11T09:52:44.340Z,100189.67
2022-11-11T09:55:34.569Z,100192.58
2022-11-11T09:58:24.916Z,100187.80
2022-11-11T10:01:15.368Z,100185.86
2022-11-11T10:04:09.291Z,100176.27
2022-11-11T10:07:02.389Z,100184.02
2022-11-11T10:09:52.502Z,100188.19
2022-11-11T10:12:44.259Z,100186.49
2022-11-11T10:15:34.260Z,100197.63
2022-11-11T10:18:24.526Z,100192.20
2022-11-11T10:21:15.121Z,100195.85
2022-11-11T10:24:06.265Z,100201.95
2022-11-11T10:26:55.742Z,100202.20
2022-11-11T10:29:45.529Z,100205.52
2022-11-11T10:32:36.181Z,100208.55
2022-11-11T10:35:26.718Z,100217.60
2022-11-11T10:38:20.088Z,100220.92
2022-11-11T10:41:16.342Z,100220.23
2022-11-11T10:44:06.618Z,100218.84
2022-11-11T10:47:00.150Z,100226.73
2022-11-11T10:49:50.199Z,100238.33
2022-11-11T10:52:40.988Z,100236.06
2022-11-11T10:55:31.167Z,100235.88
2022-11-11T10:58:30.579Z,100243.39
2022-11-11T11:01:20.797Z,100234.25
2022-11-11T11:04:10.633Z,100238.20
2022-11-11T11:07:00.957Z,100229.67
2022-11-11T11:09:52.025Z,100239.35
2022-11-11T11:12:46.141Z,100246.38
2022-11-11T11:15:36.239Z,100240.36
2022-11-11T11:18:25.625Z,100235.03
2022-11-11T11:21:15.143Z,100251.97
2022-11-11T11:24:04.365Z,100258.16
2022-11-11T11:26:54.603Z,100249.55
2022-11-11T11:29:44.653Z,100249.63
2022-11-11T11:32:34.471Z,100261.55
2022-11-11T11:35:34.046Z,100263.77
2022-11-11T11:38:24.919Z,100269.03
2022-11-11T11:41:14.122Z,100268.27
2022-11-11T11:44:02.782Z,100259.45
2022-11-11T11:46:53.153Z,100272.59
2022-11-11T11:49:59.857Z,100263.63
2022-11-11T11:52:59.109Z,100260.97
2022-11-11T11:55:49.927Z,100248.90
2022-11-11T11:58:42.695Z,100267.16
2022-11-11T12:01:32.024Z,100259.69
2022-11-11T12:04:28.019Z,100252.88
2022-11-11T12:07:18.283Z,100248.62
2022-11-11T12:10:11.503Z,100242.05
2022-11-11T12:13:07.731Z,100256.24
2022-11-11T12:16:00.995Z,100258.56
2022-11-11T12:18:54.147Z,100247.99
2022-11-11T12:21:44.150Z,100247.00
2022-11-11T12:24:49.651Z,100243.68
2022-11-11T12:27:52.353Z,100240.05
2022-11-11T12:30:42.491Z,100241.11
2022-11-11T12:33:35.528Z,100243.11
2022-11-11T12:36:40.613Z,100234.16
2022-11-11T12:39:30.794Z,100240.97
2022-11-11T12:42:33.468Z,100234.41
2022-11-11T12:45:26.815Z,100234.48
2022-11-11T12:48:22.986Z,100239.11
2022-11-11T12:51:12.782Z,100237.48
2022-11-11T12:54:05.854Z,100230.95
2022-11-11T12:57:02.216Z,100233.78
2022-11-11T12:59:55.482Z,100235.66
2022-11-11T13:02:45.955Z,100227.97
2022-11-11T13:05:42.590Z,100235.85
2022-11-11T13:08:35.994Z,100231.97
2022-11-11T13:11:38.334Z,100229.62
2022-11-11T13:14:31.371Z,100236.36
2022-11-11T13:17:20.274Z,100233.87
2022-11-11T13:20:16.484Z,100233.94
2022-11-11T13:23:06.925Z,100234.38
2022-11-11T13:26:01.477Z,100224.36
2022-11-11T13:28:49.047Z,100232.88
2022-11-11T13:31:39.356Z,100234.59
2022-11-11T13:34:28.730Z,100234.23
2022-11-11T13:37:22.088Z,100231.81
2022-11-11T13:40:12.132Z,100233.24
2022-11-11T13:43:01.450Z,100239.36
2022-11-11T13:45:54.819Z,100245.00
2022-11-11T13:48:48.070Z,100251.98
2022-11-11T13:51:41.357Z,100258.64
2022-11-11T13:54:35.072Z,100248.50
2022-11-11T13:57:27.247Z,100235.66
2022-11-11T14:00:21.852Z,100237.98
2022-11-11T14:03:15.017Z,100242.48
2022-11-11T14:06:17.508Z,100234.67
2022-11-11T14:09:07.563Z,100243.17
2022-11-11T14:11:57.905Z,100241.05
2022-11-11T14:14:50.451Z,100232.80
2022-11-11T14:17:40.239Z,100232.04
2022-11-11T14:20:39.397Z,100235.50
2022-11-11T14:23:29.215Z,100237.98
2022-11-11T14:26:19.381Z,100234.92
2022-11-11T14:29:09.194Z,100233.30
2022-11-11T14:31:59.729Z,100234.85
2022-11-11T14:35:05.103Z,100217.33
2022-11-11T14:37:55.520Z,100215.26
2022-11-11T14:40:44.453Z,100210.06
2022-11-11T14:43:35.014Z,100216.88
2022-11-11T14:46:23.638Z,100213.18
2022-11-11T14:49:12.611Z,100203.67
2022-11-11T14:52:03.404Z,100208.41
2022-11-11T14:54:53.767Z,100215.59
2022-11-11T14:57:47.152Z,100206.47
2022-11-11T15:00:52.276Z,100207.19
2022-11-11T15:03:42.155Z,100213.28
2022-11-11T15:06:35.670Z,100206.11
2022-11-11T15:09:35.269Z,100207.73
2022-11-11T15:12:25.480Z,100206.73
2022-11-11T15:15:21.466Z,100192.33
2022-11-11T15:18:28.037Z,100191.72
2022-11-11T15:21:21.464Z,100196.91
2022-11-11T15:24:18.987Z,100189.95
2022-11-11T15:27:18.099Z,100187.25
2022-11-11T15:30:17.065Z,100184.38
2022-11-11T15:33:24.056Z,100173.24
2022-11-11T15:36:17.163Z,100168.92
2022-11-11T15:39:07.386Z,100157.55
2022-11-11T15:41:56.401Z,100158.41
2022-11-11T15:44:45.104Z,100161.80
2022-11-11T15:47:35.966Z,100149.91
2022-11-11T15:50:28.841Z,100154.16
2022-11-11T15:53:18.861Z,100145.55
2022-11-11T15:56:07.894Z,100152.68
2022-11-11T15:58:56.600Z,100159.70
2022-11-11T16:01:45.536Z,100165.89
2022-11-11T16:04:54.904Z,100169.67
2022-11-11T16:07:26.078Z,100171.16
2022-11-11T16:10:17.123Z,100185.30
2022-11-11T16:13:10.108Z,100180.59
2022-11-11T16:16:00.346Z,100176.41
2022-11-11T16:18:53.532Z,100180.59
2022-11-11T16:21:43.829Z,100176.27
2022-11-11T16:24:33.898Z,100177.89
2022-11-11T16:27:24.322Z,100191.89
2022-11-11T16:30:17.990Z,100186.39
2022-11-11T16:33:06.845Z,100185.38
2022-11-11T16:35:55.282Z,100180.30
2022-11-11T16:38:45.012Z,100178.50
2022-11-11T16:41:34.165Z,100175.94
2022-11-11T16:44:36.306Z,100169.14
2022-11-11T16:47:35.593Z,100160.96
2022-11-11T16:50:25.886Z,100157.00
2022-11-11T16:53:16.537Z,100153.14
2022-11-11T16:56:05.475Z,100134.96
2022-11-11T16:58:58.470Z,100116.24
2022-11-11T17:01:47.368Z,100111.70
2022-11-11T17:04:49.568Z,100111.37
2022-11-11T17:07:39.361Z,100108.34
2022-11-11T17:10:34.885Z,100110.07
2022-11-11T17:13:24.107Z,100100.94
2022-11-11T17:16:13.906Z,100089.42
2022-11-11T17:19:03.593Z,100097.02
2022-11-11T17:21:52.376Z,100094.61
2022-11-11T17:24:41.195Z,100100.12
2022-11-11T17:27:32.557Z,100095.40
2022-11-11T17:30:21.996Z,100096.48
2022-11-11T17:33:10.767Z,100103.36
2022-11-11T17:36:01.426Z,100090.29
2022-11-11T17:38:50.310Z,100092.16
2022-11-11T17:41:39.188Z,100084.09
2022-11-11T17:44:27.925Z,100089.28
2022-11-11T17:47:16.533Z,100076.86
2022-11-11T17:50:05.265Z,100080.46
2022-11-11T17:52:55.663Z,100069.66
2022-11-11T17:55:44.974Z,100075.53
2022-11-11T17:58:39.803Z,100080.10
2022-11-11T18:01:24.469Z,100072.98
2022-11-11T18:04:14.235Z,100071.14
2022-11-11T18:07:03.317Z,100078.09
2022-11-11T18:09:52.115Z,100067.65
2022-11-11T18:12:42.071Z,100070.66
2022-11-11T18:15:30.693Z,100070.73
2022-11-11T18:18:19.531Z,100063.72
2022-11-11T18:21:08.977Z,100052.34
2022-11-11T18:23:58.359Z,100059.06
2022-11-11T18:26:46.802Z,100049.49
2022-11-11T18:29:35.990Z,100044.98
2022-11-11T18:32:24.748Z,100044.05
2022-11-11T18:35:13.588Z,100031.70
2022-11-11T18:38:02.235Z,100040.81
2022-11-11T18:40:50.766Z,100035.08
2022-11-11T18:43:41.000Z,100037.03
2022-11-11T18:46:32.257Z,100020.47
2022-11-11T18:49:21.054Z,100016.08
2022-11-11T18:52:09.517Z,100031.24
2022-11-11T18:54:58.468Z,100023.88
2022-11-11T18:57:47.180Z,100017.23
2022-11-11T19:00:36.230Z,100011.16
2022-11-11T19:03:25.122Z,100023.36
2022-11-11T19:06:13.911Z,100010.14
2022-11-11T19:09:10.341Z,99999.93
2022-11-11T19:11:58.957Z,100005.03
2022-11-11T19:14:47.405Z,99999.70
2022-11-11T19:17:36.123Z,99990.28
2022-11-11T19:20:24.864Z,99993.73
2022-11-11T19:23:13.764Z,99982.47
2022-11-11T19:26:02.619Z,99976.54
2022-11-11T19:28:51.345Z,99990.28
2022-11-11T19:31:40.044Z,99987.73
2022-11-11T19:34:28.826Z,99970.95
2022-11-11T19:37:19.265Z,99964.16
2022-11-11T19:40:08.444Z,99965.66
2022-11-11T19:42:56.996Z,99950.72
2022-11-11T19:45:46.224Z,99957.17
2022-11-11T19:48:35.252Z,99950.38
2022-11-11T19:51:25.097Z,99945.20
2022-11-11T19:54:14.105Z,99931.98
2022-11-11T19:57:02.959Z,99930.79
2022-11-11T19:59:52.034Z,99929.89
2022-11-11T20:02:40.932Z,99926.47
2022-11-11T20:05:29.724Z,99914.12
2022-11-11T20:08:18.403Z,99920.91
2022-11-11T20:11:08.481Z,99896.92
2022-11-11T20:13:57.252Z,99898.72
2022-11-11T20:16:45.934Z,99890.06
2022-11-11T20:19:34.686Z,99891.08
2022-11-11T20:22:23.901Z,99891.94
2022-11-11T20:25:12.791Z,99890.41
2022-11-11T20:28:01.265Z,99886.99
2022-11-11T20:30:50.193Z,99883.42
2022-11-11T20:33:38.983Z,99878.17
2022-11-11T20:36:27.803Z,99867.92
2022-11-11T20:39:16.496Z,99868.50
2022-11-11T20:42:05.387Z,99868.88
2022-11-11T20:44:54.242Z,99867.75
2022-11-11T20:47:42.928Z,99862.58
2022-11-11T20:50:31.665Z,99860.52
2022-11-11T20:53:20.472Z,99852.71
2022-11-11T20:56:10.334Z,99842.16
2022-11-11T20:58:59.503Z,99844.26
2022-11-11T21:01:48.360Z,99841.86
2022-11-11T21:04:37.199Z,99833.45
2022-11-11T21:07:25.620Z,99837.94
2022-11-11T21:10:14.415Z,99828.45
2022-11-11T21:13:02.917Z,99830.22
2022-11-11T21:15:51.981Z,99829.72
2022-11-11T21:18:40.899Z,99837.16
2022-11-11T21:21:31.187Z,99845.39
2022-11-11T21:24:19.864Z,99830.36
2022-11-11T21:27:08.382Z,99842.40
2022-11-11T21:29:57.143Z,99843.48
2022-11-11T21:32:45.704Z,99806.90
2022-11-11T21:35:34.361Z,99826.91
2022-11-11T21:38:23.578Z,99813.05
2022-11-11T21:41:13.625Z,99788.69
2022-11-11T21:44:02.141Z,99792.81
2022-11-11T21:46:50.636Z,99790.87
2022-11-11T21:49:39.104Z,99798.05
2022-11-11T21:52:28.001Z,99788.31
2022-11-11T21:55:16.605Z,99785.77
2022-11-11T21:58:05.024Z,99789.17
2022-11-11T22:00:53.539Z,99786.55
2022-11-11T22:03:42.539Z,99783.59
2022-11-11T22:06:31.323Z,99790.39
2022-11-11T22:09:20.210Z,99779.29
2022-11-11T22:12:08.864Z,99768.45
2022-11-11T22:14:57.735Z,99765.84
2022-11-11T22:17:46.526Z,99778.50
2022-11-11T22:20:35.267Z,99753.38
2022-11-11T22:23:24.122Z,99751.71
2022-11-11T22:26:12.587Z,99753.15
2022-11-11T22:29:01.027Z,99749.51
2022-11-11T22:31:49.422Z,99748.07
2022-11-11T22:34:38.092Z,99754.10
2022-11-11T22:37:26.748Z,99744.42
2022-11-11T22:40:15.436Z,99741.41
2022-11-11T22:43:04.060Z,99742.91
2022-11-11T22:45:57.504Z,99715.82
2022-11-11T22:48:53.692Z,99739.88
2022-11-11T22:51:44.475Z,99739.10
2022-11-11T22:54:33.144Z,99741.73
2022-11-11T22:57:23.062Z,99740.71
2022-11-11T23:00:12.067Z,99753.69
2022-11-11T23:03:00.710Z,99752.50
2022-11-11T23:05:49.286Z,99743.25
2022-11-11T23:08:38.335Z,99744.03
2022-11-11T23:11:28.159Z,99750.90
2022-11-11T23:14:16.948Z,99745.56
2022-11-11T23:17:05.856Z,99741.84
2022-11-11T23:19:54.563Z,99751.76
2022-11-11T23:22:43.267Z,99749.37
2022-11-11T23:25:33.757Z,99756.73
2022-11-11T23:28:23.272Z,99746.23
2022-11-11T23:31:13.590Z,99752.42
2022-11-11T23:34:02.761Z,99756.15
2022-11-11T23:36:51.384Z,99751.98
2022-11-11T23:39:39.786Z,99755.09
2022-11-11T23:42:28.185Z,99757.20
2022-11-11T23:45:16.986Z,99755.77
2022-11-11T23:48:05.449Z,99758.47
2022-11-11T23:50:54.270Z,99759.38
2022-11-11T23:53:42.666Z,99753.30
2022-11-11T23:56:31.182Z,99749.09
2022-11-11T23:59:19.620Z,99753.67
